METAR LSZS 041520Z 16007KT 8000 -SN SCT027 BKN030 01/M01 Q1010